createdAt,value
2023-04-30T00:00:33.797Z,92.80
2023-04-30T00:03:01.832Z,92.42
2023-04-30T00:05:29.827Z,93.12
2023-04-30T00:07:57.649Z,93.45
2023-04-30T00:10:25.493Z,93.16
2023-04-30T00:12:53.444Z,94.26
2023-04-30T00:15:21.295Z,94.30
2023-04-30T00:17:49.232Z,94.36
2023-04-30T00:20:17.414Z,95.54
2023-04-30T00:22:45.343Z,95.59
2023-04-30T00:25:13.208Z,95.60
2023-04-30T00:27:41.235Z,95.74
2023-04-30T00:30:09.558Z,96.07
2023-04-30T00:32:37.450Z,96.42
2023-04-30T00:35:05.844Z,97.31
2023-04-30T00:37:33.985Z,97.84
2023-04-30T00:40:01.776Z,97.48
2023-04-30T00:42:30.912Z,96.68
2023-04-30T00:44:58.819Z,96.80
2023-04-30T00:47:26.863Z,96.87
2023-04-30T00:49:55.086Z,95.74
2023-04-30T00:52:23.399Z,96.34
2023-04-30T00:54:53.818Z,96.20
2023-04-30T00:57:22.970Z,97.17
2023-04-30T00:59:51.739Z,97.50
2023-04-30T01:02:20.411Z,98.01
2023-04-30T01:04:48.750Z,98.18
2023-04-30T01:07:16.813Z,98.85
2023-04-30T01:09:44.840Z,98.81
2023-04-30T01:12:26.665Z,97.53
2023-04-30T01:15:08.979Z,98.08
2023-04-30T01:17:59.443Z,97.41
2023-04-30T01:20:30.007Z,96.10
2023-04-30T01:23:13.729Z,96.94
2023-04-30T01:26:00.690Z,98.11
2023-04-30T01:28:29.018Z,98.73
2023-04-30T01:30:58.915Z,97.92
2023-04-30T01:33:27.311Z,98.30
2023-04-30T01:36:02.196Z,99.29
2023-04-30T01:38:42.283Z,99.15
2023-04-30T01:41:38.021Z,98.98
2023-04-30T01:44:17.274Z,99.14
2023-04-30T01:47:09.760Z,97.47
2023-04-30T01:50:03.911Z,98.35
2023-04-30T01:52:38.471Z,99.01
2023-04-30T01:55:12.597Z,99.01
2023-04-30T01:57:50.111Z,98.64
2023-04-30T02:00:18.190Z,99.23
2023-04-30T02:02:46.206Z,99.61
2023-04-30T02:05:14.215Z,100.00
2023-04-30T02:07:47.007Z,99.86
2023-04-30T02:10:15.243Z,98.93
2023-04-30T02:12:43.248Z,98.24
2023-04-30T02:15:11.492Z,98.91
2023-04-30T02:17:41.988Z,98.48
2023-04-30T02:20:10.307Z,98.43
2023-04-30T02:22:38.327Z,97.14
2023-04-30T02:25:06.692Z,98.33
2023-04-30T02:27:35.141Z,97.86
2023-04-30T02:30:03.342Z,97.54
2023-04-30T02:32:31.683Z,97.92
2023-04-30T02:34:59.747Z,98.90
2023-04-30T02:37:27.650Z,98.24
2023-04-30T02:39:55.848Z,98.52
2023-04-30T02:42:23.913Z,99.49
2023-04-30T02:44:51.893Z,97.85
2023-04-30T02:47:19.849Z,98.26
2023-04-30T02:49:47.730Z,98.93
2023-04-30T02:52:15.575Z,99.00
2023-04-30T02:54:43.526Z,99.82
2023-04-30T02:57:12.010Z,98.57
2023-04-30T02:59:40.558Z,98.38
2023-04-30T03:02:08.549Z,99.40
2023-04-30T03:04:36.437Z,98.76
2023-04-30T03:07:07.025Z,98.58
2023-04-30T03:09:36.789Z,98.70
2023-04-30T03:12:04.903Z,99.72
2023-04-30T03:14:32.780Z,99.19
2023-04-30T03:17:00.587Z,99.40
2023-04-30T03:19:29.330Z,99.26
2023-04-30T03:21:57.280Z,98.99
2023-04-30T03:24:25.608Z,99.48
2023-04-30T03:26:53.504Z,99.84
2023-04-30T03:29:21.324Z,100.00
2023-04-30T03:31:49.268Z,100.00
2023-04-30T03:34:17.154Z,100.00
2023-04-30T03:36:45.056Z,100.00
2023-04-30T03:39:13.028Z,100.00
2023-04-30T03:41:40.892Z,100.00
2023-04-30T03:44:16.006Z,99.95
2023-04-30T03:46:44.117Z,99.97
2023-04-30T03:49:12.193Z,100.00
2023-04-30T03:51:42.182Z,100.00
2023-04-30T03:54:10.483Z,99.93
2023-04-30T03:56:38.910Z,100.00
2023-04-30T03:59:06.956Z,100.00
2023-04-30T04:01:34.989Z,99.97
2023-04-30T04:04:03.534Z,100.00
2023-04-30T04:06:33.115Z,100.00
2023-04-30T04:09:01.098Z,100.00
2023-04-30T04:11:29.069Z,100.00
2023-04-30T04:13:57.950Z,100.00
2023-04-30T04:16:26.269Z,100.00
2023-04-30T04:18:55.029Z,100.00
2023-04-30T04:21:22.936Z,99.95
2023-04-30T04:23:50.932Z,99.77
2023-04-30T04:26:21.710Z,98.95
2023-04-30T04:28:49.636Z,98.74
2023-04-30T04:31:18.437Z,99.75
2023-04-30T04:33:47.008Z,98.90
2023-04-30T04:36:14.867Z,100.00
2023-04-30T04:38:43.176Z,100.00
2023-04-30T04:41:11.056Z,100.00
2023-04-30T04:43:38.969Z,100.00
2023-04-30T04:46:10.627Z,100.00
2023-04-30T04:48:39.669Z,100.00
2023-04-30T04:51:07.626Z,97.41
2023-04-30T04:53:35.546Z,96.21
2023-04-30T04:56:03.613Z,95.32
2023-04-30T04:58:31.847Z,94.25
2023-04-30T05:01:00.400Z,94.13
2023-04-30T05:03:29.542Z,94.82
2023-04-30T05:05:57.605Z,93.61
2023-04-30T05:08:25.786Z,93.18
2023-04-30T05:10:53.638Z,94.67
2023-04-30T05:13:21.665Z,93.25
2023-04-30T05:15:52.319Z,93.70
2023-04-30T05:18:20.747Z,93.85
2023-04-30T05:20:49.022Z,92.57
2023-04-30T05:23:16.964Z,91.58
2023-04-30T05:25:45.690Z,90.62
2023-04-30T05:28:13.586Z,90.20
2023-04-30T05:30:41.388Z,89.33
2023-04-30T05:33:09.337Z,91.58
2023-04-30T05:35:37.370Z,90.96
2023-04-30T05:38:05.359Z,91.38
2023-04-30T05:40:33.270Z,90.80
2023-04-30T05:43:01.182Z,90.46
2023-04-30T05:45:29.118Z,91.24
2023-04-30T05:47:57.123Z,91.53
2023-04-30T05:50:25.054Z,91.97
2023-04-30T05:52:53.003Z,91.84
2023-04-30T05:55:20.893Z,92.80
2023-04-30T05:57:48.809Z,92.23
2023-04-30T06:00:16.793Z,92.13
2023-04-30T06:02:44.848Z,92.13
2023-04-30T06:05:15.971Z,92.59
2023-04-30T06:07:45.111Z,90.02
2023-04-30T06:10:13.152Z,88.33
2023-04-30T06:12:41.413Z,87.97
2023-04-30T06:15:09.545Z,87.08
2023-04-30T06:17:37.726Z,85.66
2023-04-30T06:20:07.124Z,86.74
2023-04-30T06:22:35.193Z,84.74
2023-04-30T06:25:03.753Z,83.19
2023-04-30T06:27:33.188Z,84.08
2023-04-30T06:30:02.251Z,83.79
2023-04-30T06:32:30.599Z,84.02
2023-04-30T06:34:58.958Z,85.29
2023-04-30T06:37:27.000Z,84.41
2023-04-30T06:39:54.978Z,83.34
2023-04-30T06:42:23.312Z,83.65
2023-04-30T06:44:51.415Z,80.89
2023-04-30T06:47:19.357Z,82.05
2023-04-30T06:49:47.361Z,80.51
2023-04-30T06:52:15.175Z,80.97
2023-04-30T06:54:44.080Z,81.64
2023-04-30T06:57:12.560Z,83.16
2023-04-30T06:59:40.444Z,80.02
2023-04-30T07:02:08.529Z,79.99
2023-04-30T07:04:36.526Z,78.47
2023-04-30T07:07:04.705Z,76.50
2023-04-30T07:09:32.580Z,78.84
2023-04-30T07:12:01.074Z,79.89
2023-04-30T07:14:28.964Z,79.87
2023-04-30T07:16:56.839Z,80.49
2023-04-30T07:19:27.116Z,80.56
2023-04-30T07:21:54.992Z,81.84
2023-04-30T07:24:22.851Z,79.20
2023-04-30T07:26:51.061Z,78.22
2023-04-30T07:29:19.561Z,78.39
2023-04-30T07:31:47.975Z,76.90
2023-04-30T07:34:15.785Z,77.04
2023-04-30T07:36:43.774Z,76.88
2023-04-30T07:39:11.937Z,75.82
2023-04-30T07:41:39.848Z,75.95
2023-04-30T07:44:07.733Z,76.58
2023-04-30T07:46:36.718Z,76.23
2023-04-30T07:49:04.787Z,74.97
2023-04-30T07:51:33.129Z,74.11
2023-04-30T07:54:01.126Z,72.08
2023-04-30T07:56:29.020Z,72.83
2023-04-30T07:58:57.088Z,72.79
2023-04-30T08:01:24.933Z,73.51
2023-04-30T08:03:52.879Z,73.47
2023-04-30T08:06:20.805Z,72.44
2023-04-30T08:08:48.885Z,73.56
2023-04-30T08:11:19.179Z,73.28
2023-04-30T08:13:47.525Z,73.63
2023-04-30T08:16:16.020Z,72.66
2023-04-30T08:18:46.904Z,71.69
2023-04-30T08:21:15.247Z,71.48
2023-04-30T08:23:43.476Z,71.72
2023-04-30T08:26:13.502Z,71.10
2023-04-30T08:28:43.741Z,71.95
2023-04-30T08:31:13.014Z,70.69
2023-04-30T08:33:41.391Z,70.59
2023-04-30T08:36:11.024Z,68.61
2023-04-30T08:38:40.545Z,69.68
2023-04-30T08:41:14.903Z,68.13
2023-04-30T08:43:47.858Z,68.63
2023-04-30T08:46:19.416Z,67.62
2023-04-30T08:48:50.802Z,67.68
2023-04-30T08:51:18.984Z,67.05
2023-04-30T08:53:48.330Z,67.52
2023-04-30T08:56:16.262Z,66.16
2023-04-30T08:58:44.569Z,67.61
2023-04-30T09:01:12.448Z,67.30
2023-04-30T09:03:41.020Z,67.09
2023-04-30T09:06:08.957Z,68.62
2023-04-30T09:08:44.945Z,69.25
2023-04-30T09:11:31.706Z,68.74
2023-04-30T09:14:01.488Z,67.94
2023-04-30T09:16:45.786Z,65.55
2023-04-30T09:19:27.399Z,63.15
2023-04-30T09:21:55.742Z,64.32
2023-04-30T09:24:24.409Z,62.78
2023-04-30T09:26:52.405Z,62.03
2023-04-30T09:29:23.156Z,62.93
2023-04-30T09:31:51.127Z,62.76
2023-04-30T09:34:19.011Z,60.78
2023-04-30T09:36:56.152Z,59.95
2023-04-30T09:39:24.229Z,59.26
2023-04-30T09:41:54.742Z,59.57
2023-04-30T09:44:29.914Z,59.13
2023-04-30T09:46:59.007Z,59.19
2023-04-30T09:49:27.809Z,58.29
2023-04-30T09:51:59.306Z,57.71
2023-04-30T09:54:32.429Z,58.95
2023-04-30T09:57:02.411Z,58.64
2023-04-30T09:59:39.520Z,58.67
2023-04-30T10:02:08.887Z,59.07
2023-04-30T10:04:38.856Z,57.43
2023-04-30T10:07:16.595Z,58.16
2023-04-30T10:09:51.244Z,56.65
2023-04-30T10:12:26.025Z,57.47
2023-04-30T10:15:11.627Z,58.35
2023-04-30T10:17:41.770Z,57.07
2023-04-30T10:20:12.011Z,56.48
2023-04-30T10:22:41.989Z,56.65
2023-04-30T10:25:13.660Z,56.19
2023-04-30T10:27:41.616Z,55.88
2023-04-30T10:30:10.940Z,54.64
2023-04-30T10:32:47.949Z,55.23
2023-04-30T10:35:16.291Z,53.22
2023-04-30T10:37:49.934Z,52.79
2023-04-30T10:40:19.775Z,54.06
2023-04-30T10:42:50.712Z,53.58
2023-04-30T10:45:20.986Z,52.60
2023-04-30T10:47:49.092Z,52.55
2023-04-30T10:50:17.509Z,52.05
2023-04-30T10:52:45.327Z,52.30
2023-04-30T10:55:18.461Z,52.34
2023-04-30T10:57:48.570Z,50.77
2023-04-30T11:00:20.567Z,50.96
2023-04-30T11:02:49.289Z,50.67
2023-04-30T11:05:18.822Z,50.15
2023-04-30T11:08:11.702Z,48.13
2023-04-30T11:10:59.024Z,47.92
2023-04-30T11:13:27.743Z,48.80
2023-04-30T11:16:03.486Z,49.42
2023-04-30T11:18:31.702Z,47.51
2023-04-30T11:20:59.743Z,48.14
2023-04-30T11:23:38.523Z,48.04
2023-04-30T11:26:10.783Z,46.87
2023-04-30T11:28:38.884Z,46.39
2023-04-30T11:31:06.929Z,45.07
2023-04-30T11:33:36.018Z,46.51
2023-04-30T11:36:04.125Z,45.61
2023-04-30T11:38:36.966Z,44.43
2023-04-30T11:41:05.632Z,44.83
2023-04-30T11:43:34.961Z,45.22
2023-04-30T11:46:09.937Z,43.19
2023-04-30T11:48:42.580Z,43.09
2023-04-30T11:51:27.150Z,45.61
2023-04-30T11:53:55.153Z,44.01
2023-04-30T11:56:24.698Z,45.40
2023-04-30T11:58:55.953Z,44.21
2023-04-30T12:01:27.678Z,44.08
2023-04-30T12:03:58.250Z,45.53
2023-04-30T12:06:28.272Z,44.19
2023-04-30T12:08:58.070Z,44.84
2023-04-30T12:11:28.821Z,45.46
2023-04-30T12:14:17.122Z,44.92
2023-04-30T12:16:49.517Z,44.77
2023-04-30T12:19:19.516Z,43.77
2023-04-30T12:21:49.438Z,44.52
2023-04-30T12:24:19.245Z,45.10
2023-04-30T12:26:48.456Z,45.58
2023-04-30T12:29:18.451Z,45.17
2023-04-30T12:31:51.127Z,45.31
2023-04-30T12:34:19.210Z,42.88
2023-04-30T12:36:47.097Z,43.99
2023-04-30T12:39:16.588Z,40.87
2023-04-30T12:41:49.773Z,41.76
2023-04-30T12:44:18.792Z,43.49
2023-04-30T12:46:49.381Z,42.00
2023-04-30T12:49:33.714Z,41.35
2023-04-30T12:52:07.628Z,42.45
2023-04-30T12:54:37.461Z,40.85
2023-04-30T12:57:07.691Z,40.45
2023-04-30T12:59:40.627Z,40.52
2023-04-30T13:02:14.949Z,40.98
2023-04-30T13:04:44.721Z,41.11
2023-04-30T13:07:12.786Z,41.35
2023-04-30T13:09:40.992Z,41.52
2023-04-30T13:12:08.916Z,40.30
2023-04-30T13:14:36.878Z,40.86
2023-04-30T13:17:07.133Z,41.96
2023-04-30T13:19:35.437Z,39.14
2023-04-30T13:22:03.374Z,40.93
2023-04-30T13:24:31.474Z,40.91
2023-04-30T13:26:59.505Z,40.71
2023-04-30T13:29:27.843Z,42.35
2023-04-30T13:31:55.879Z,42.39
2023-04-30T13:34:23.963Z,41.87
2023-04-30T13:36:53.626Z,43.17
2023-04-30T13:39:22.152Z,42.10
2023-04-30T13:41:50.079Z,42.71
2023-04-30T13:44:17.964Z,42.30
2023-04-30T13:46:46.068Z,42.76
2023-04-30T13:49:14.128Z,42.72
2023-04-30T13:51:42.060Z,41.89
2023-04-30T13:54:10.016Z,40.99
2023-04-30T13:56:38.551Z,41.21
2023-04-30T13:59:06.484Z,41.16
2023-04-30T14:01:34.592Z,41.07
2023-04-30T14:04:03.208Z,38.98
2023-04-30T14:06:32.326Z,40.58
2023-04-30T14:09:00.300Z,40.19
2023-04-30T14:11:28.445Z,41.28
2023-04-30T14:13:56.372Z,42.24
2023-04-30T14:16:25.461Z,42.75
2023-04-30T14:18:53.449Z,40.61
2023-04-30T14:21:21.469Z,41.93
2023-04-30T14:23:49.373Z,41.46
2023-04-30T14:26:17.263Z,41.26
2023-04-30T14:28:45.338Z,41.58
2023-04-30T14:31:13.793Z,40.92
2023-04-30T14:33:42.464Z,40.87
2023-04-30T14:36:13.312Z,40.37
2023-04-30T14:38:41.539Z,41.22
2023-04-30T14:41:09.728Z,41.10
2023-04-30T14:43:37.707Z,41.58
2023-04-30T14:46:07.547Z,41.75
2023-04-30T14:48:36.157Z,40.07
2023-04-30T14:51:05.257Z,40.84
2023-04-30T14:53:33.486Z,41.61
2023-04-30T14:56:01.717Z,41.35
2023-04-30T14:58:29.991Z,42.66
2023-04-30T15:00:58.144Z,43.20
2023-04-30T15:03:27.771Z,43.17
2023-04-30T15:05:56.252Z,43.09
2023-04-30T15:08:24.463Z,44.31
2023-04-30T15:10:53.231Z,44.48
2023-04-30T15:13:22.270Z,44.68
2023-04-30T15:15:50.843Z,44.86
2023-04-30T15:18:18.770Z,44.99
2023-04-30T15:20:47.412Z,44.92
2023-04-30T15:23:15.763Z,44.24
2023-04-30T15:25:44.622Z,44.87
2023-04-30T15:28:14.668Z,45.33
2023-04-30T15:30:42.737Z,44.92
2023-04-30T15:33:10.878Z,45.32
2023-04-30T15:35:47.064Z,46.35
2023-04-30T15:38:17.382Z,45.54
2023-04-30T15:40:45.348Z,46.11
2023-04-30T15:43:14.093Z,45.86
2023-04-30T15:45:43.451Z,46.69
2023-04-30T15:48:15.044Z,46.09
2023-04-30T15:50:43.081Z,45.62
2023-04-30T15:53:10.941Z,46.95
2023-04-30T15:55:39.019Z,47.12
2023-04-30T15:58:07.049Z,46.22
2023-04-30T16:00:34.937Z,46.43
2023-04-30T16:03:03.000Z,47.38
2023-04-30T16:05:31.712Z,47.43
2023-04-30T16:07:59.948Z,48.02
2023-04-30T16:10:27.839Z,48.36
2023-04-30T16:12:55.846Z,48.16
2023-04-30T16:15:24.623Z,49.13
2023-04-30T16:17:52.906Z,49.38
2023-04-30T16:20:21.567Z,49.00
2023-04-30T16:22:52.871Z,49.12
2023-04-30T16:25:20.929Z,49.68
2023-04-30T16:27:49.886Z,50.14
2023-04-30T16:30:17.921Z,50.60
2023-04-30T16:32:45.939Z,50.69
2023-04-30T16:35:14.028Z,50.77
2023-04-30T16:37:41.951Z,51.70
2023-04-30T16:40:11.159Z,51.88
2023-04-30T16:42:39.070Z,51.64
2023-04-30T16:45:07.554Z,51.76
2023-04-30T16:47:35.581Z,52.30
2023-04-30T16:50:04.143Z,53.12
2023-04-30T16:52:33.414Z,52.19
2023-04-30T16:55:01.360Z,52.58
2023-04-30T16:57:29.249Z,52.35
2023-04-30T16:59:57.441Z,52.53
2023-04-30T17:02:25.799Z,52.64
2023-04-30T17:04:54.210Z,53.00
2023-04-30T17:07:22.048Z,53.87
2023-04-30T17:09:50.729Z,54.12
2023-04-30T17:12:18.668Z,53.78
2023-04-30T17:14:47.724Z,53.73
2023-04-30T17:17:15.640Z,54.67
2023-04-30T17:19:43.568Z,53.90
2023-04-30T17:22:13.297Z,53.63
2023-04-30T17:24:41.232Z,53.03
2023-04-30T17:27:09.636Z,53.51
2023-04-30T17:29:37.768Z,53.09
2023-04-30T17:32:05.903Z,53.70
2023-04-30T17:34:33.757Z,54.08
2023-04-30T17:37:01.608Z,53.89
2023-04-30T17:39:32.630Z,53.00
2023-04-30T17:42:01.059Z,52.15
2023-04-30T17:44:31.531Z,52.14
2023-04-30T17:46:59.524Z,52.09
2023-04-30T17:49:28.614Z,51.97
2023-04-30T17:51:59.226Z,51.96
2023-04-30T17:54:29.148Z,52.11
2023-04-30T17:56:59.266Z,51.72
2023-04-30T17:59:30.093Z,52.10
2023-04-30T18:01:59.224Z,51.60
2023-04-30T18:04:27.119Z,52.37
2023-04-30T18:06:55.069Z,52.96
2023-04-30T18:09:23.146Z,52.88
2023-04-30T18:11:51.741Z,53.66
2023-04-30T18:14:19.644Z,53.58
2023-04-30T18:16:48.856Z,52.93
2023-04-30T18:19:18.233Z,54.35
2023-04-30T18:21:46.191Z,54.06
2023-04-30T18:24:14.126Z,54.00
2023-04-30T18:26:41.991Z,53.10
2023-04-30T18:29:10.363Z,53.21
2023-04-30T18:31:38.516Z,53.93
2023-04-30T18:34:07.085Z,53.52
2023-04-30T18:36:36.280Z,53.56
2023-04-30T18:39:05.713Z,53.52
2023-04-30T18:41:33.535Z,53.31
2023-04-30T18:44:04.137Z,53.37
2023-04-30T18:46:32.136Z,52.98
2023-04-30T18:49:00.034Z,52.98
2023-04-30T18:51:28.004Z,53.17
2023-04-30T18:53:57.477Z,53.57
2023-04-30T18:56:25.606Z,53.08
2023-04-30T18:58:53.527Z,53.32
2023-04-30T19:01:23.123Z,54.05
2023-04-30T19:03:51.232Z,53.36
2023-04-30T19:06:19.218Z,53.70
2023-04-30T19:08:47.134Z,53.84
2023-04-30T19:11:15.408Z,53.96
2023-04-30T19:13:43.226Z,53.46
2023-04-30T19:16:11.120Z,54.01
2023-04-30T19:18:39.762Z,54.30
2023-04-30T19:21:08.993Z,53.35
2023-04-30T19:23:36.918Z,54.32
2023-04-30T19:26:04.889Z,54.32
2023-04-30T19:28:32.773Z,54.22
2023-04-30T19:31:00.904Z,54.34
2023-04-30T19:33:28.968Z,53.91
2023-04-30T19:35:57.988Z,54.98
2023-04-30T19:38:32.267Z,54.22
2023-04-30T19:41:01.898Z,54.12
2023-04-30T19:43:32.730Z,55.10
2023-04-30T19:46:02.567Z,54.79
2023-04-30T19:48:31.696Z,55.13
2023-04-30T19:51:05.367Z,55.92
2023-04-30T19:53:35.163Z,55.62
2023-04-30T19:56:03.356Z,56.22
2023-04-30T19:58:32.003Z,55.96
2023-04-30T20:01:00.462Z,55.88
2023-04-30T20:03:29.102Z,55.97
2023-04-30T20:05:58.472Z,56.26
2023-04-30T20:08:26.705Z,58.50
2023-04-30T20:10:55.118Z,58.64
2023-04-30T20:13:25.735Z,58.65
2023-04-30T20:15:54.856Z,59.18
2023-04-30T20:18:22.777Z,59.88
2023-04-30T20:20:50.866Z,59.83
2023-04-30T20:23:19.410Z,59.71
2023-04-30T20:25:48.029Z,59.44
2023-04-30T20:28:19.271Z,60.59
2023-04-30T20:30:50.532Z,60.30
2023-04-30T20:33:20.951Z,60.40
2023-04-30T20:35:49.748Z,60.77
2023-04-30T20:38:19.979Z,60.58
2023-04-30T20:40:48.799Z,61.00
2023-04-30T20:43:17.282Z,61.37
2023-04-30T20:45:45.546Z,62.08
2023-04-30T20:48:13.727Z,61.44
2023-04-30T20:50:42.216Z,60.68
2023-04-30T20:53:11.309Z,61.28
2023-04-30T20:55:39.439Z,60.88
2023-04-30T20:58:09.209Z,61.31
2023-04-30T21:00:37.171Z,62.12
2023-04-30T21:03:05.770Z,61.67
2023-04-30T21:05:34.446Z,62.45
2023-04-30T21:08:02.487Z,62.77
2023-04-30T21:10:36.548Z,62.79
2023-04-30T21:13:06.113Z,62.47
2023-04-30T21:15:35.936Z,63.00
2023-04-30T21:18:04.137Z,63.52
2023-04-30T21:20:32.465Z,64.24
2023-04-30T21:23:02.562Z,64.10
2023-04-30T21:25:30.732Z,64.88
2023-04-30T21:27:58.863Z,65.04
2023-04-30T21:30:26.953Z,64.45
2023-04-30T21:33:04.877Z,65.56
2023-04-30T21:35:33.222Z,65.88
2023-04-30T21:38:01.118Z,66.48
2023-04-30T21:40:32.421Z,66.80
2023-04-30T21:43:01.787Z,67.05
2023-04-30T21:45:32.039Z,67.76
2023-04-30T21:48:00.383Z,67.97
2023-04-30T21:50:28.398Z,67.69
2023-04-30T21:52:56.234Z,67.32
2023-04-30T21:55:24.252Z,67.86
2023-04-30T21:57:52.111Z,68.40
2023-04-30T22:00:21.252Z,68.55
2023-04-30T22:02:50.818Z,67.76
2023-04-30T22:05:19.848Z,69.57
2023-04-30T22:07:48.271Z,68.60
2023-04-30T22:10:16.408Z,69.99
2023-04-30T22:12:47.692Z,68.88
2023-04-30T22:15:16.156Z,69.02
2023-04-30T22:17:44.409Z,69.30
2023-04-30T22:20:12.874Z,69.45
2023-04-30T22:22:41.980Z,69.28
2023-04-30T22:25:10.610Z,68.25
2023-04-30T22:27:38.594Z,68.74
2023-04-30T22:30:07.320Z,69.70
2023-04-30T22:32:35.514Z,68.77
2023-04-30T22:35:03.664Z,69.33
2023-04-30T22:37:31.587Z,70.24
2023-04-30T22:39:59.573Z,68.88
2023-04-30T22:42:28.851Z,68.34
2023-04-30T22:44:57.573Z,68.35
2023-04-30T22:47:27.508Z,69.46
2023-04-30T22:49:56.837Z,71.51
2023-04-30T22:52:26.193Z,71.74
2023-04-30T22:54:54.029Z,72.05
2023-04-30T22:57:25.713Z,72.48
2023-04-30T22:59:54.305Z,72.57
2023-04-30T23:02:23.208Z,73.49
2023-04-30T23:04:51.772Z,72.99
2023-04-30T23:07:19.663Z,74.07
2023-04-30T23:09:47.529Z,74.32
2023-04-30T23:12:16.302Z,74.60
2023-04-30T23:14:44.342Z,75.63
2023-04-30T23:17:12.172Z,75.64
2023-04-30T23:19:40.128Z,75.28
2023-04-30T23:22:07.936Z,74.74
2023-04-30T23:24:36.172Z,74.79
2023-04-30T23:27:04.635Z,74.45
2023-04-30T23:29:33.764Z,72.47
2023-04-30T23:32:02.967Z,73.12
2023-04-30T23:34:30.827Z,74.66
2023-04-30T23:36:58.582Z,75.57
2023-04-30T23:39:26.593Z,75.24
2023-04-30T23:41:54.399Z,74.67
2023-04-30T23:44:22.548Z,74.99
2023-04-30T23:46:51.271Z,75.69
2023-04-30T23:49:19.362Z,75.59
2023-04-30T23:51:47.159Z,76.30
2023-04-30T23:54:15.108Z,76.02
2023-04-30T23:56:42.961Z,75.95
2023-04-30T23:59:10.771Z,75.81
